createdAt,value
2019-03-05T00:02:00.309Z,6.10
2019-03-05T00:04:30.123Z,6.20
2019-03-05T00:06:58.962Z,6.10
2019-03-05T00:09:28.215Z,6.20
2019-03-05T00:11:56.972Z,6.20
2019-03-05T00:14:25.814Z,6.10
2019-03-05T00:16:54.719Z,6.10
2019-03-05T00:19:23.743Z,6.20
2019-03-05T00:21:52.803Z,6.20
2019-03-05T00:24:48.271Z,6.20
2019-03-05T00:27:16.987Z,6.20
2019-03-05T00:30:18.210Z,6.10
2019-03-05T00:32:48.981Z,6.20
2019-03-05T00:35:47.439Z,6.20
2019-03-05T00:38:34.792Z,6.20
2019-03-05T00:41:19.804Z,6.20
2019-03-05T00:44:34.453Z,6.20
2019-03-05T00:47:18.323Z,6.20
2019-03-05T00:50:25.211Z,6.10
2019-03-05T00:53:26.040Z,6.10
2019-03-05T00:56:19.002Z,6.10
2019-03-05T00:59:31.639Z,6.20
2019-03-05T01:02:33.190Z,6.10
2019-03-05T01:05:22.460Z,6.10
2019-03-05T01:07:51.340Z,6.10
2019-03-05T01:10:20.949Z,6.00
2019-03-05T01:12:50.173Z,6.00
2019-03-05T01:15:18.943Z,6.10
2019-03-05T01:17:48.598Z,6.20
2019-03-05T01:20:17.437Z,6.20
2019-03-05T01:22:46.532Z,6.20
2019-03-05T01:25:40.369Z,6.20
2019-03-05T01:28:09.194Z,6.20
2019-03-05T01:31:01.332Z,6.20
2019-03-05T01:33:34.959Z,6.20
2019-03-05T01:36:08.428Z,6.20
2019-03-05T01:38:47.044Z,6.20
2019-03-05T01:41:16.059Z,6.20
2019-03-05T01:43:45.201Z,6.30
2019-03-05T01:46:14.145Z,6.30
2019-03-05T01:48:43.054Z,6.30
2019-03-05T01:51:12.057Z,6.20
2019-03-05T01:53:40.884Z,6.30
2019-03-05T01:56:09.830Z,6.30
2019-03-05T01:58:38.728Z,6.30
2019-03-05T02:01:08.421Z,6.30
2019-03-05T02:03:37.301Z,6.40
2019-03-05T02:06:06.232Z,6.40
2019-03-05T02:08:35.316Z,6.40
2019-03-05T02:11:04.893Z,6.40
2019-03-05T02:13:33.667Z,6.30
2019-03-05T02:16:02.604Z,6.40
2019-03-05T02:18:31.558Z,6.40
2019-03-05T02:21:00.853Z,6.50
2019-03-05T02:23:43.872Z,6.50
2019-03-05T02:26:50.217Z,6.50
2019-03-05T02:29:41.332Z,6.50
2019-03-05T02:32:56.973Z,6.60
2019-03-05T02:35:50.365Z,6.70
2019-03-05T02:38:45.141Z,6.70
2019-03-05T02:41:48.569Z,6.70
2019-03-05T02:44:27.618Z,6.70
2019-03-05T02:47:22.234Z,6.90
2019-03-05T02:50:35.453Z,6.90
2019-03-05T02:53:16.490Z,6.80
2019-03-05T02:56:29.840Z,6.90
2019-03-05T02:58:57.671Z,6.90
2019-03-05T03:01:48.562Z,6.90
2019-03-05T03:04:20.167Z,6.90
2019-03-05T03:06:49.964Z,7.00
2019-03-05T03:10:07.823Z,7.10
2019-03-05T03:12:36.765Z,7.10
2019-03-05T03:15:11.324Z,7.10
2019-03-05T03:17:40.307Z,7.10
2019-03-05T03:20:10.480Z,7.10
2019-03-05T03:22:39.336Z,7.10
2019-03-05T03:25:09.730Z,7.10
2019-03-05T03:27:38.583Z,7.10
2019-03-05T03:30:09.832Z,7.20
2019-03-05T03:32:38.642Z,7.10
2019-03-05T03:35:09.881Z,7.10
2019-03-05T03:37:38.767Z,7.00
2019-03-05T03:40:10.203Z,6.90
2019-03-05T03:42:39.012Z,6.90
2019-03-05T03:45:10.287Z,6.90
2019-03-05T03:47:39.171Z,6.90
2019-03-05T03:50:08.709Z,6.90
2019-03-05T03:52:37.556Z,6.90
2019-03-05T03:55:06.834Z,6.90
2019-03-05T03:57:35.574Z,6.90
2019-03-05T04:00:05.755Z,6.90
2019-03-05T04:02:34.787Z,6.80
2019-03-05T04:05:04.040Z,6.80
2019-03-05T04:07:32.925Z,6.80
2019-03-05T04:10:01.762Z,6.90
2019-03-05T04:12:30.693Z,6.80
2019-03-05T04:14:59.745Z,6.80
2019-03-05T04:17:28.663Z,6.80
2019-03-05T04:19:57.616Z,6.70
2019-03-05T04:22:26.720Z,6.70
2019-03-05T04:24:55.713Z,6.70
2019-03-05T04:27:24.631Z,6.70
2019-03-05T04:29:53.427Z,6.80
2019-03-05T04:32:23.831Z,6.80
2019-03-05T04:34:52.958Z,6.80
2019-03-05T04:37:22.014Z,6.80
2019-03-05T04:39:50.756Z,6.70
2019-03-05T04:42:19.792Z,6.80
2019-03-05T04:44:57.334Z,6.70
2019-03-05T04:47:26.174Z,6.80
2019-03-05T04:50:02.780Z,6.70
2019-03-05T04:52:35.111Z,6.80
2019-03-05T04:55:03.974Z,6.70
2019-03-05T04:57:33.055Z,6.70
2019-03-05T05:00:02.828Z,6.70
2019-03-05T05:02:32.112Z,6.80
2019-03-05T05:05:01.062Z,6.80
2019-03-05T05:07:30.150Z,6.70
2019-03-05T05:09:58.953Z,6.80
2019-03-05T05:12:27.879Z,6.70
2019-03-05T05:14:56.735Z,6.70
2019-03-05T05:17:45.594Z,6.70
2019-03-05T05:20:14.507Z,6.60
2019-03-05T05:22:43.371Z,6.70
2019-03-05T05:25:12.195Z,6.60
2019-03-05T05:27:41.001Z,6.70
2019-03-05T05:30:26.523Z,6.70
2019-03-05T05:32:55.687Z,6.70
2019-03-05T05:35:24.737Z,6.70
2019-03-05T05:37:53.558Z,6.60
2019-03-05T05:40:42.219Z,6.60
2019-03-05T05:43:16.638Z,6.60
2019-03-05T05:45:50.108Z,6.50
2019-03-05T05:48:19.092Z,6.50
2019-03-05T05:50:47.947Z,6.60
2019-03-05T05:53:16.791Z,6.60
2019-03-05T05:55:45.587Z,6.60
2019-03-05T05:58:14.430Z,6.60
2019-03-05T06:00:45.824Z,6.60
2019-03-05T06:03:14.654Z,6.60
2019-03-05T06:05:43.600Z,6.60
2019-03-05T06:08:12.507Z,6.60
2019-03-05T06:10:41.226Z,6.60
2019-03-05T06:13:10.002Z,6.50
2019-03-05T06:15:39.008Z,6.50
2019-03-05T06:18:07.919Z,6.50
2019-03-05T06:20:36.724Z,6.50
2019-03-05T06:23:05.494Z,6.50
2019-03-05T06:25:34.279Z,6.50
2019-03-05T06:28:03.163Z,6.50
2019-03-05T06:30:32.866Z,6.50
2019-03-05T06:33:02.094Z,6.50
2019-03-05T06:35:31.595Z,6.50
2019-03-05T06:38:00.420Z,6.60
2019-03-05T06:40:29.421Z,6.50
2019-03-05T06:42:58.455Z,6.50
2019-03-05T06:45:27.238Z,6.60
2019-03-05T06:47:56.379Z,6.60
2019-03-05T06:50:25.160Z,6.70
2019-03-05T06:52:53.919Z,6.80
2019-03-05T06:55:22.848Z,6.90
2019-03-05T06:57:51.995Z,6.90
2019-03-05T07:00:26.547Z,7.10
2019-03-05T07:02:55.714Z,7.20
2019-03-05T07:06:00.776Z,7.30
2019-03-05T07:08:30.133Z,7.20
2019-03-05T07:11:19.011Z,7.30
2019-03-05T07:13:48.108Z,7.30
2019-03-05T07:16:30.075Z,7.30
2019-03-05T07:19:57.539Z,7.20
2019-03-05T07:22:27.814Z,7.20
2019-03-05T07:24:56.645Z,7.10
2019-03-05T07:27:33.316Z,6.90
2019-03-05T07:30:11.347Z,6.70
2019-03-05T07:32:40.102Z,6.50
2019-03-05T07:35:10.489Z,6.50
2019-03-05T07:37:39.460Z,6.50
2019-03-05T07:40:08.976Z,6.60
2019-03-05T07:42:37.965Z,6.70
2019-03-05T07:45:07.204Z,6.90
2019-03-05T07:47:36.389Z,7.00
2019-03-05T07:50:06.035Z,7.00
2019-03-05T07:52:35.070Z,7.10
2019-03-05T07:55:13.193Z,7.30
2019-03-05T07:57:34.960Z,7.40
2019-03-05T08:00:05.580Z,7.50
2019-03-05T08:02:34.607Z,7.50
2019-03-05T08:05:03.338Z,7.60
2019-03-05T08:07:32.520Z,7.80
2019-03-05T08:10:08.572Z,7.90
2019-03-05T08:13:08.673Z,7.70
2019-03-05T08:15:49.796Z,7.70
2019-03-05T08:18:18.756Z,7.60
2019-03-05T08:20:47.479Z,7.60
2019-03-05T08:23:16.778Z,7.50
2019-03-05T08:25:45.567Z,7.40
2019-03-05T08:28:14.634Z,7.30
2019-03-05T08:30:43.587Z,7.30
2019-03-05T08:33:12.373Z,7.40
2019-03-05T08:35:41.159Z,7.50
2019-03-05T08:38:10.458Z,7.80
2019-03-05T08:40:39.238Z,8.00
2019-03-05T08:43:08.354Z,8.10
2019-03-05T08:45:37.659Z,8.10
2019-03-05T08:48:09.647Z,8.10
2019-03-05T08:50:38.700Z,8.30
2019-03-05T08:53:07.717Z,8.70
2019-03-05T08:55:36.748Z,9.50
2019-03-05T08:58:06.256Z,10.10
2019-03-05T09:00:35.345Z,9.40
2019-03-05T09:03:04.881Z,9.40
2019-03-05T09:05:33.900Z,9.00
2019-03-05T09:08:02.797Z,9.30
2019-03-05T09:10:31.627Z,9.50
2019-03-05T09:13:00.551Z,9.80
2019-03-05T09:15:29.671Z,9.90
2019-03-05T09:17:58.555Z,9.90
2019-03-05T09:20:27.465Z,10.40
2019-03-05T09:22:56.315Z,10.20
2019-03-05T09:25:25.263Z,9.60
2019-03-05T09:27:55.390Z,10.10
2019-03-05T09:30:25.040Z,10.40
2019-03-05T09:32:53.842Z,10.00
2019-03-05T09:35:22.651Z,9.30
2019-03-05T09:37:51.572Z,8.90
2019-03-05T09:40:21.589Z,8.50
2019-03-05T09:42:50.645Z,8.50
2019-03-05T09:45:20.096Z,8.40
2019-03-05T09:47:49.088Z,8.40
2019-03-05T09:50:18.302Z,8.40
2019-03-05T09:52:54.826Z,8.10
2019-03-05T09:55:19.208Z,8.00
2019-03-05T09:57:53.194Z,8.00
2019-03-05T10:00:22.928Z,8.10
2019-03-05T10:02:51.784Z,8.10
2019-03-05T10:05:20.917Z,8.10
2019-03-05T10:07:50.035Z,8.10
2019-03-05T10:10:21.372Z,8.10
2019-03-05T10:12:50.201Z,8.20
2019-03-05T10:15:20.066Z,8.20
2019-03-05T10:17:50.157Z,8.20
2019-03-05T10:20:20.819Z,8.30
2019-03-05T10:22:49.948Z,8.40
2019-03-05T10:25:20.271Z,8.50
2019-03-05T10:27:49.385Z,8.60
2019-03-05T10:30:24.851Z,8.40
2019-03-05T10:32:52.303Z,8.60
2019-03-05T10:35:23.012Z,8.70
2019-03-05T10:37:53.048Z,8.80
2019-03-05T10:40:23.209Z,8.90
2019-03-05T10:42:52.080Z,9.10
2019-03-05T10:45:21.206Z,9.30
2019-03-05T10:47:50.731Z,9.40
2019-03-05T10:50:23.207Z,9.40
2019-03-05T10:52:52.225Z,9.30
2019-03-05T10:55:26.303Z,9.00
2019-03-05T10:57:51.836Z,8.80
2019-03-05T11:00:24.892Z,8.60
2019-03-05T11:02:54.617Z,8.50
2019-03-05T11:05:24.073Z,8.30
2019-03-05T11:07:53.195Z,8.20
2019-03-05T11:10:22.122Z,8.30
2019-03-05T11:12:51.443Z,8.30
2019-03-05T11:15:22.739Z,8.50
2019-03-05T11:17:51.704Z,8.70
2019-03-05T11:20:20.867Z,8.80
2019-03-05T11:22:49.997Z,9.20
2019-03-05T11:25:19.169Z,9.60
2019-03-05T11:27:48.347Z,9.80
2019-03-05T11:30:19.620Z,9.50
2019-03-05T11:32:48.495Z,9.40
2019-03-05T11:35:19.956Z,9.40
2019-03-05T11:37:49.007Z,9.40
2019-03-05T11:40:21.304Z,9.10
2019-03-05T11:42:49.724Z,8.30
2019-03-05T11:45:24.208Z,7.80
2019-03-05T11:47:53.143Z,7.80
2019-03-05T11:50:22.753Z,8.10
2019-03-05T11:52:52.862Z,8.20
2019-03-05T11:55:22.330Z,8.30
2019-03-05T11:57:51.277Z,8.40
2019-03-05T12:00:30.880Z,8.40
2019-03-05T12:02:59.833Z,8.40
2019-03-05T12:05:29.175Z,8.40
2019-03-05T12:07:58.449Z,8.30
2019-03-05T12:10:27.467Z,8.20
2019-03-05T12:12:58.286Z,8.20
2019-03-05T12:15:27.454Z,8.10
2019-03-05T12:17:56.332Z,7.80
2019-03-05T12:20:25.139Z,7.00
2019-03-05T12:22:54.165Z,6.50
2019-03-05T12:25:23.807Z,6.20
2019-03-05T12:27:52.885Z,6.00
2019-03-05T12:30:22.462Z,5.80
2019-03-05T12:32:51.323Z,5.70
2019-03-05T12:35:20.411Z,5.60
2019-03-05T12:37:49.548Z,5.60
2019-03-05T12:40:18.488Z,5.50
2019-03-05T12:42:47.427Z,5.50
2019-03-05T12:45:16.468Z,5.60
2019-03-05T12:47:45.505Z,5.60
2019-03-05T12:50:16.855Z,5.50
2019-03-05T12:52:46.563Z,5.60
2019-03-05T12:55:15.848Z,5.60
2019-03-05T12:57:44.903Z,5.60
2019-03-05T13:00:19.959Z,5.50
2019-03-05T13:02:49.075Z,5.50
2019-03-05T13:05:18.403Z,5.30
2019-03-05T13:07:47.496Z,5.20
2019-03-05T13:10:18.187Z,5.10
2019-03-05T13:12:47.363Z,5.00
2019-03-05T13:15:19.302Z,4.80
2019-03-05T13:17:51.478Z,4.80
2019-03-05T13:20:22.439Z,4.60
2019-03-05T13:22:49.427Z,4.70
2019-03-05T13:25:18.614Z,4.80
2019-03-05T13:27:47.428Z,4.90
2019-03-05T13:30:21.998Z,5.10
2019-03-05T13:32:54.122Z,5.10
2019-03-05T13:35:21.044Z,5.20
2019-03-05T13:37:50.303Z,5.50
2019-03-05T13:40:21.168Z,5.60
2019-03-05T13:42:50.215Z,5.60
2019-03-05T13:45:19.237Z,5.70
2019-03-05T13:47:57.922Z,5.90
2019-03-05T13:51:08.216Z,6.40
2019-03-05T13:54:00.364Z,7.30
2019-03-05T13:56:55.331Z,8.00
2019-03-05T13:59:45.119Z,7.90
2019-03-05T14:02:36.581Z,8.20
2019-03-05T14:05:48.674Z,8.10
2019-03-05T14:08:55.454Z,7.90
2019-03-05T14:11:24.911Z,7.40
2019-03-05T14:13:53.906Z,7.00
2019-03-05T14:16:23.385Z,6.90
2019-03-05T14:18:52.221Z,6.90
2019-03-05T14:21:21.208Z,6.80
2019-03-05T14:23:51.777Z,6.70
2019-03-05T14:26:20.824Z,6.50
2019-03-05T14:28:49.724Z,6.50
2019-03-05T14:31:18.633Z,6.50
2019-03-05T14:33:50.244Z,6.50
2019-03-05T14:36:18.375Z,6.50
2019-03-05T14:38:47.385Z,6.50
2019-03-05T14:41:16.612Z,6.60
2019-03-05T14:43:46.156Z,6.50
2019-03-05T14:46:15.069Z,6.60
2019-03-05T14:48:44.404Z,6.60
2019-03-05T14:51:13.183Z,6.60
2019-03-05T14:53:43.293Z,6.60
2019-03-05T14:56:12.289Z,6.60
2019-03-05T14:58:41.040Z,6.70
2019-03-05T15:01:10.085Z,6.70
2019-03-05T15:03:45.283Z,6.50
2019-03-05T15:06:14.159Z,6.40
2019-03-05T15:08:42.994Z,7.50
2019-03-05T15:11:11.977Z,8.80
2019-03-05T15:13:41.158Z,9.20
2019-03-05T15:16:09.952Z,9.50
2019-03-05T15:18:38.875Z,9.30
2019-03-05T15:21:08.350Z,8.70
2019-03-05T15:23:37.223Z,8.20
2019-03-05T15:26:06.214Z,7.90
2019-03-05T15:28:35.499Z,7.40
2019-03-05T15:31:04.666Z,7.30
2019-03-05T15:33:33.724Z,7.00
2019-03-05T15:36:03.235Z,7.00
2019-03-05T15:38:32.231Z,6.90
2019-03-05T15:41:01.357Z,6.80
2019-03-05T15:43:30.171Z,7.30
2019-03-05T15:45:59.183Z,7.90
2019-03-05T15:48:28.082Z,8.10
2019-03-05T15:50:57.135Z,8.40
2019-03-05T15:53:27.669Z,8.20
2019-03-05T15:55:56.706Z,7.80
2019-03-05T15:58:25.632Z,7.50
2019-03-05T16:00:54.427Z,7.20
2019-03-05T16:03:23.678Z,6.90
2019-03-05T16:05:53.869Z,6.80
2019-03-05T16:08:25.183Z,6.60
2019-03-05T16:10:54.653Z,6.60
2019-03-05T16:13:24.561Z,6.50
2019-03-05T16:15:53.733Z,6.40
2019-03-05T16:18:22.573Z,6.40
2019-03-05T16:20:51.482Z,6.50
2019-03-05T16:23:20.421Z,6.50
2019-03-05T16:25:50.310Z,6.40
2019-03-05T16:28:20.590Z,6.30
2019-03-05T16:31:12.666Z,6.30
2019-03-05T16:33:48.559Z,6.30
2019-03-05T16:36:40.191Z,6.30
2019-03-05T16:39:33.751Z,6.40
2019-03-05T16:42:25.842Z,6.40
2019-03-05T16:45:09.843Z,6.40
2019-03-05T16:47:56.760Z,6.40
2019-03-05T16:50:45.756Z,6.20
2019-03-05T16:53:36.728Z,6.20
2019-03-05T16:56:23.100Z,6.20
2019-03-05T16:59:11.070Z,6.10
2019-03-05T17:01:48.479Z,6.10
2019-03-05T17:04:46.223Z,6.00
2019-03-05T17:07:43.540Z,5.90
2019-03-05T17:10:24.604Z,5.90
2019-03-05T17:12:53.571Z,5.90
2019-03-05T17:15:22.454Z,6.00
2019-03-05T17:17:51.503Z,6.00
2019-03-05T17:20:20.477Z,6.10
2019-03-05T17:22:49.933Z,6.10
2019-03-05T17:25:19.025Z,6.00
2019-03-05T17:27:48.218Z,5.90
2019-03-05T17:30:17.430Z,5.90
2019-03-05T17:32:46.584Z,6.00
2019-03-05T17:35:15.880Z,6.10
2019-03-05T17:37:45.076Z,6.10
2019-03-05T17:40:15.684Z,6.00
2019-03-05T17:42:45.747Z,6.00
2019-03-05T17:45:17.898Z,6.00
2019-03-05T17:47:47.312Z,6.00
2019-03-05T17:50:16.344Z,6.00
2019-03-05T17:52:45.190Z,5.90
2019-03-05T17:55:23.813Z,5.90
2019-03-05T17:57:47.739Z,5.90
2019-03-05T18:00:32.605Z,5.80
2019-03-05T18:03:01.769Z,5.70
2019-03-05T18:05:30.781Z,5.70
2019-03-05T18:07:59.915Z,5.70
2019-03-05T18:10:28.941Z,5.70
2019-03-05T18:12:58.029Z,5.70
2019-03-05T18:15:28.771Z,5.70
2019-03-05T18:17:57.765Z,5.60
2019-03-05T18:20:26.568Z,5.60
2019-03-05T18:22:55.636Z,5.60
2019-03-05T18:25:25.287Z,5.60
2019-03-05T18:27:54.225Z,5.50
2019-03-05T18:30:23.248Z,5.50
2019-03-05T18:32:52.221Z,5.50
2019-03-05T18:35:21.293Z,5.60
2019-03-05T18:37:50.155Z,5.50
2019-03-05T18:40:19.380Z,5.50
2019-03-05T18:42:48.224Z,5.50
2019-03-05T18:45:19.231Z,5.40
2019-03-05T18:47:48.166Z,5.50
2019-03-05T18:50:18.500Z,5.40
2019-03-05T18:52:48.252Z,5.30
2019-03-05T18:55:17.171Z,5.30
2019-03-05T18:57:46.368Z,5.30
2019-03-05T19:00:18.424Z,5.30
2019-03-05T19:02:47.273Z,5.20
2019-03-05T19:05:16.566Z,5.20
2019-03-05T19:07:46.960Z,5.10
2019-03-05T19:10:17.200Z,5.10
2019-03-05T19:12:46.103Z,5.00
2019-03-05T19:15:18.532Z,5.00
2019-03-05T19:17:48.968Z,5.00
2019-03-05T19:20:19.995Z,5.00
2019-03-05T19:22:50.197Z,5.00
2019-03-05T19:25:22.441Z,5.00
2019-03-05T19:27:51.303Z,5.00
2019-03-05T19:30:25.977Z,5.00
2019-03-05T19:32:55.976Z,5.00
2019-03-05T19:35:24.942Z,5.00
2019-03-05T19:37:53.710Z,5.00
2019-03-05T19:40:25.080Z,5.10
2019-03-05T19:42:53.981Z,5.10
2019-03-05T19:45:23.057Z,5.10
2019-03-05T19:47:52.215Z,5.10
2019-03-05T19:50:21.465Z,5.10
2019-03-05T19:52:50.651Z,5.20
2019-03-05T19:55:20.237Z,5.20
2019-03-05T19:57:49.291Z,5.20
2019-03-05T20:00:30.725Z,5.20
2019-03-05T20:02:59.840Z,5.20
2019-03-05T20:05:29.033Z,5.30
2019-03-05T20:07:58.122Z,5.30
2019-03-05T20:10:27.363Z,5.30
2019-03-05T20:12:56.756Z,5.30
2019-03-05T20:15:26.256Z,5.20
2019-03-05T20:17:58.939Z,5.20
2019-03-05T20:20:26.091Z,5.10
2019-03-05T20:22:55.518Z,5.10
2019-03-05T20:25:24.752Z,5.10
2019-03-05T20:27:54.320Z,5.00
2019-03-05T20:30:23.351Z,5.10
2019-03-05T20:32:52.291Z,5.00
2019-03-05T20:35:21.426Z,5.00
2019-03-05T20:37:50.389Z,5.00
2019-03-05T20:40:19.976Z,5.00
2019-03-05T20:42:49.053Z,5.00
2019-03-05T20:45:23.710Z,5.00
2019-03-05T20:47:52.760Z,5.00
2019-03-05T20:50:21.794Z,4.90
2019-03-05T20:52:51.083Z,4.90
2019-03-05T20:55:20.090Z,5.00
2019-03-05T20:57:49.294Z,4.90
2019-03-05T21:00:25.971Z,5.00
2019-03-05T21:02:56.701Z,5.00
2019-03-05T21:05:27.818Z,5.00
2019-03-05T21:07:57.003Z,5.00
2019-03-05T21:10:26.223Z,5.00
2019-03-05T21:12:55.472Z,4.90
2019-03-05T21:15:24.790Z,4.90
2019-03-05T21:17:53.775Z,4.90
2019-03-05T21:20:22.676Z,4.90
2019-03-05T21:22:52.183Z,4.90
2019-03-05T21:25:21.263Z,4.90
2019-03-05T21:27:51.137Z,4.90
2019-03-05T21:30:20.009Z,4.90
2019-03-05T21:32:48.815Z,4.90
2019-03-05T21:35:17.688Z,4.90
2019-03-05T21:37:46.596Z,4.90
2019-03-05T21:40:20.469Z,4.90
2019-03-05T21:42:49.672Z,4.80
2019-03-05T21:45:21.986Z,4.80
2019-03-05T21:47:51.079Z,4.90
2019-03-05T21:50:20.299Z,4.80
2019-03-05T21:52:49.274Z,4.80
2019-03-05T21:55:18.824Z,4.90
2019-03-05T21:57:47.768Z,4.80
2019-03-05T22:00:19.352Z,4.80
2019-03-05T22:02:48.192Z,4.80
2019-03-05T22:05:17.010Z,4.80
2019-03-05T22:07:46.159Z,4.90
2019-03-05T22:10:16.593Z,4.80
2019-03-05T22:12:45.784Z,4.80
2019-03-05T22:15:16.443Z,4.80
2019-03-05T22:17:45.331Z,4.80
2019-03-05T22:20:15.000Z,4.70
2019-03-05T22:22:44.341Z,4.80
2019-03-05T22:25:15.645Z,4.70
2019-03-05T22:27:44.481Z,4.70
2019-03-05T22:30:18.360Z,4.70
2019-03-05T22:32:47.343Z,4.60
2019-03-05T22:35:17.064Z,4.60
2019-03-05T22:37:46.496Z,4.60
2019-03-05T22:40:15.593Z,4.60
2019-03-05T22:42:44.808Z,4.70
2019-03-05T22:45:18.667Z,4.70
2019-03-05T22:47:49.594Z,4.70
2019-03-05T22:50:18.936Z,4.70
2019-03-05T22:52:47.812Z,4.70
2019-03-05T22:55:16.827Z,4.70
2019-03-05T22:57:45.969Z,4.70
2019-03-05T23:00:44.653Z,4.70
2019-03-05T23:03:15.046Z,4.70
2019-03-05T23:05:44.190Z,4.80
2019-03-05T23:08:13.815Z,4.70
2019-03-05T23:10:42.954Z,4.70
2019-03-05T23:13:12.868Z,4.70
2019-03-05T23:15:42.386Z,4.70
2019-03-05T23:18:11.457Z,4.70
2019-03-05T23:20:40.689Z,4.70
2019-03-05T23:23:09.566Z,4.60
2019-03-05T23:25:38.663Z,4.60
2019-03-05T23:28:07.682Z,4.60
2019-03-05T23:30:37.182Z,4.60
2019-03-05T23:33:06.299Z,4.60
2019-03-05T23:35:39.244Z,4.60
2019-03-05T23:38:08.461Z,4.50
2019-03-05T23:40:37.408Z,4.50
2019-03-05T23:43:06.760Z,4.50
2019-03-05T23:45:35.896Z,4.50
2019-03-05T23:48:05.103Z,4.50
2019-03-05T23:50:34.396Z,4.40
2019-03-05T23:53:03.373Z,4.40
2019-03-05T23:55:32.623Z,4.40
2019-03-05T23:58:01.594Z,4.40
